createdAt,value
2019-04-11T00:01:33.867Z,6.57
2019-04-11T00:03:54.033Z,6.50
2019-04-11T00:06:25.631Z,7.00
2019-04-11T00:08:56.387Z,6.70
2019-04-11T00:11:26.080Z,6.20
2019-04-11T00:13:55.773Z,6.13
2019-04-11T00:16:25.587Z,6.17
2019-04-11T00:18:55.055Z,7.10
2019-04-11T00:21:24.660Z,6.50
2019-04-11T00:23:54.507Z,6.10
2019-04-11T00:26:26.427Z,6.27
2019-04-11T00:28:56.287Z,6.73
2019-04-11T00:31:25.929Z,6.80
2019-04-11T00:33:56.264Z,6.97
2019-04-11T00:36:26.294Z,6.83
2019-04-11T00:38:57.295Z,7.00
2019-04-11T00:41:28.003Z,6.43
2019-04-11T00:43:58.634Z,6.83
2019-04-11T00:46:28.701Z,6.67
2019-04-11T00:48:58.407Z,6.80
2019-04-11T00:51:28.179Z,6.80
2019-04-11T00:53:58.343Z,7.07
2019-04-11T00:56:28.352Z,7.43
2019-04-11T00:58:58.363Z,8.17
2019-04-11T01:01:28.178Z,8.17
2019-04-11T01:03:57.670Z,7.87
2019-04-11T01:06:27.960Z,7.67
2019-04-11T01:08:57.865Z,7.80
2019-04-11T01:11:27.852Z,7.83
2019-04-11T01:13:57.467Z,8.53
2019-04-11T01:16:28.692Z,7.93
2019-04-11T01:18:58.311Z,8.30
2019-04-11T01:21:28.555Z,8.50
2019-04-11T01:23:58.145Z,8.50
2019-04-11T01:26:28.221Z,8.17
2019-04-11T01:28:58.778Z,8.50
2019-04-11T01:31:33.711Z,9.37
2019-04-11T01:34:04.378Z,8.70
2019-04-11T01:36:35.261Z,8.67
2019-04-11T01:39:21.286Z,9.27
2019-04-11T01:41:50.918Z,9.47
2019-04-11T01:44:20.731Z,9.47
2019-04-11T01:46:50.923Z,9.70
2019-04-11T01:49:22.256Z,9.73
2019-04-11T01:51:51.880Z,9.50
2019-04-11T01:54:21.751Z,9.27
2019-04-11T01:56:51.608Z,9.40
2019-04-11T01:59:21.607Z,9.13
2019-04-11T02:01:53.025Z,9.90
2019-04-11T02:04:24.358Z,9.50
2019-04-11T02:06:54.142Z,9.87
2019-04-11T02:09:24.170Z,9.00
2019-04-11T02:11:54.030Z,9.23
2019-04-11T02:14:24.153Z,9.57
2019-04-11T02:16:53.941Z,10.37
2019-04-11T02:19:23.897Z,9.53
2019-04-11T02:21:55.287Z,9.27
2019-04-11T02:24:34.159Z,9.83
2019-04-11T02:27:14.773Z,9.87
2019-04-11T02:29:44.799Z,10.53
2019-04-11T02:32:15.717Z,9.67
2019-04-11T02:34:46.185Z,9.83
2019-04-11T02:37:17.341Z,10.10
2019-04-11T02:39:47.365Z,9.63
2019-04-11T02:42:18.886Z,9.20
2019-04-11T02:45:23.114Z,9.70
2019-04-11T02:47:41.587Z,8.97
2019-04-11T02:50:29.955Z,9.00
2019-04-11T02:53:00.916Z,9.80
2019-04-11T02:55:35.754Z,8.57
2019-04-11T02:58:07.872Z,9.50
2019-04-11T03:00:37.810Z,8.67
2019-04-11T03:03:08.469Z,9.23
2019-04-11T03:05:39.456Z,9.23
2019-04-11T03:08:12.010Z,9.43
2019-04-11T03:10:41.078Z,9.27
2019-04-11T03:13:12.697Z,9.93
2019-04-11T03:15:56.818Z,9.43
2019-04-11T03:18:34.400Z,9.07
2019-04-11T03:20:49.698Z,9.67
2019-04-11T03:23:20.937Z,8.73
2019-04-11T03:25:49.097Z,9.43
2019-04-11T03:28:23.058Z,9.80
2019-04-11T03:31:21.910Z,9.07
2019-04-11T03:36:53.650Z,9.80
2019-04-11T03:38:46.519Z,9.77
2019-04-11T03:41:12.190Z,10.07
2019-04-11T03:43:40.923Z,9.60
2019-04-11T03:46:14.324Z,9.90
2019-04-11T03:48:45.369Z,9.63
2019-04-11T03:51:01.915Z,10.20
2019-04-11T03:53:34.376Z,10.80
2019-04-11T03:56:04.596Z,10.70
2019-04-11T03:58:34.933Z,10.47
2019-04-11T04:01:08.396Z,10.53
2019-04-11T04:03:51.046Z,9.83
2019-04-11T04:06:21.078Z,11.60
2019-04-11T04:08:50.931Z,10.73
2019-04-11T04:11:27.387Z,10.13
2019-04-11T04:14:08.163Z,10.53
2019-04-11T04:16:54.870Z,12.03
2019-04-11T04:19:47.724Z,11.47
2019-04-11T04:22:50.255Z,10.97
2019-04-11T04:25:21.339Z,10.93
2019-04-11T04:27:51.418Z,11.10
2019-04-11T04:30:41.089Z,12.03
2019-04-11T04:33:14.051Z,11.90
2019-04-11T04:35:44.521Z,11.30
2019-04-11T04:38:15.576Z,12.60
2019-04-11T04:41:00.792Z,12.63
2019-04-11T04:43:33.747Z,13.43
2019-04-11T04:46:20.553Z,13.27
2019-04-11T04:48:34.698Z,12.40
2019-04-11T04:51:08.860Z,13.07
2019-04-11T04:53:35.746Z,14.03
2019-04-11T04:56:06.731Z,13.73
2019-04-11T04:58:37.697Z,13.07
2019-04-11T05:01:07.849Z,14.97
2019-04-11T05:03:37.939Z,15.23
2019-04-11T05:06:07.712Z,15.00
2019-04-11T05:08:38.844Z,16.47
2019-04-11T05:11:08.491Z,14.80
2019-04-11T05:13:38.786Z,13.87
2019-04-11T05:16:17.302Z,12.60
2019-04-11T05:18:40.428Z,12.60
2019-04-11T05:21:10.737Z,12.60
2019-04-11T05:23:40.355Z,13.00
2019-04-11T05:26:10.746Z,13.77
2019-04-11T05:28:40.483Z,13.80
2019-04-11T05:31:10.192Z,13.80
2019-04-11T05:33:39.594Z,13.90
2019-04-11T05:36:09.121Z,13.40
2019-04-11T05:38:38.475Z,12.40
2019-04-11T05:41:12.136Z,11.27
2019-04-11T05:43:41.776Z,10.50
2019-04-11T05:46:26.112Z,10.67
2019-04-11T05:48:47.272Z,9.73
2019-04-11T05:51:21.226Z,12.13
2019-04-11T05:53:49.978Z,11.20
2019-04-11T05:56:21.801Z,10.27
2019-04-11T05:58:53.493Z,10.40
2019-04-11T06:01:24.634Z,10.00
2019-04-11T06:03:55.727Z,9.27
2019-04-11T06:06:29.044Z,9.40
2019-04-11T06:09:00.769Z,9.00
2019-04-11T06:11:35.081Z,9.20
2019-04-11T06:14:21.474Z,8.70
2019-04-11T06:16:55.784Z,7.93
2019-04-11T06:19:28.635Z,9.00
2019-04-11T06:22:00.322Z,8.50
2019-04-11T06:24:48.220Z,8.57
2019-04-11T06:27:19.981Z,8.27
2019-04-11T06:30:07.539Z,8.00
2019-04-11T06:33:13.313Z,8.57
2019-04-11T06:35:56.735Z,8.40
2019-04-11T06:38:47.100Z,8.33
2019-04-11T06:41:27.619Z,8.40
2019-04-11T06:44:09.200Z,7.90
2019-04-11T06:46:59.504Z,7.90
2019-04-11T06:49:34.113Z,8.43
2019-04-11T06:52:05.870Z,8.27
2019-04-11T06:54:37.187Z,8.43
2019-04-11T06:57:08.379Z,8.10
2019-04-11T06:59:45.839Z,8.40
2019-04-11T07:02:19.537Z,8.50
2019-04-11T07:04:54.948Z,8.23
2019-04-11T07:07:28.833Z,8.73
2019-04-11T07:10:04.471Z,8.17
2019-04-11T07:15:25.113Z,8.77
2019-04-11T07:18:14.016Z,8.27
2019-04-11T07:20:52.374Z,8.83
2019-04-11T07:23:40.530Z,9.10
2019-04-11T07:26:14.407Z,8.83
2019-04-11T07:28:45.900Z,9.10
2019-04-11T07:31:25.707Z,10.20
2019-04-11T07:34:24.804Z,9.87
2019-04-11T07:37:12.666Z,8.70
2019-04-11T07:39:45.016Z,8.97
2019-04-11T07:42:21.710Z,8.97
2019-04-11T07:45:11.569Z,8.57
2019-04-11T07:50:24.920Z,9.00
2019-04-11T07:52:56.612Z,9.33
2019-04-11T07:55:26.323Z,9.07
2019-04-11T07:58:05.006Z,8.93
2019-04-11T08:00:54.288Z,8.10
2019-04-11T08:03:29.844Z,7.37
2019-04-11T08:06:03.041Z,8.23
2019-04-11T08:08:34.613Z,7.53
2019-04-11T08:11:27.459Z,7.47
2019-04-11T08:14:02.207Z,8.17
2019-04-11T08:16:49.747Z,7.63
2019-04-11T08:19:33.093Z,6.67
2019-04-11T08:22:06.955Z,7.53
2019-04-11T08:24:44.811Z,6.07
2019-04-11T08:27:28.363Z,6.00
2019-04-11T08:30:00.331Z,5.80
2019-04-11T08:32:46.617Z,5.43
2019-04-11T08:35:34.940Z,5.83
2019-04-11T08:38:07.767Z,5.67
2019-04-11T08:40:49.181Z,4.70
2019-04-11T08:43:23.411Z,5.63
2019-04-11T08:45:58.259Z,4.60
2019-04-11T08:48:29.463Z,4.90
2019-04-11T08:51:08.058Z,5.53
2019-04-11T08:53:40.592Z,5.60
2019-04-11T08:56:10.629Z,5.33
2019-04-11T08:58:51.062Z,4.67
2019-04-11T09:01:22.268Z,5.13
2019-04-11T09:04:13.612Z,4.57
2019-04-11T09:06:42.989Z,4.97
2019-04-11T09:09:33.372Z,4.90
2019-04-11T09:12:04.865Z,4.60
2019-04-11T09:14:44.880Z,4.47
2019-04-11T09:17:20.999Z,4.50
2019-04-11T09:19:52.037Z,4.40
2019-04-11T09:22:29.210Z,4.40
2019-04-11T09:25:10.738Z,4.57
2019-04-11T09:28:00.764Z,4.07
2019-04-11T09:30:34.711Z,4.20
2019-04-11T09:33:06.793Z,3.70
2019-04-11T09:35:37.959Z,4.17
2019-04-11T09:41:17.054Z,3.57
2019-04-11T09:43:46.483Z,3.67
2019-04-11T09:46:34.777Z,3.70
2019-04-11T09:49:15.418Z,3.50
2019-04-11T09:52:02.564Z,3.80
2019-04-11T09:54:50.595Z,3.97
2019-04-11T09:57:24.989Z,3.87
2019-04-11T10:00:05.922Z,3.80
2019-04-11T10:02:50.454Z,3.80
2019-04-11T10:05:22.305Z,3.60
2019-04-11T10:08:06.493Z,3.70
2019-04-11T10:10:40.375Z,4.03
2019-04-11T10:13:16.561Z,3.80
2019-04-11T10:15:51.505Z,3.60
2019-04-11T10:18:28.013Z,3.47
2019-04-11T10:20:55.059Z,3.70
2019-04-11T10:23:45.151Z,3.60
2019-04-11T10:26:15.922Z,3.80
2019-04-11T10:29:02.275Z,3.87
2019-04-11T10:31:34.626Z,3.93
2019-04-11T10:34:06.175Z,3.50
2019-04-11T10:36:37.395Z,3.80
2019-04-11T10:39:15.503Z,4.10
2019-04-11T10:41:55.982Z,3.70
2019-04-11T10:44:27.172Z,4.03
2019-04-11T10:46:58.207Z,4.30
2019-04-11T10:49:30.286Z,4.77
2019-04-11T10:52:07.432Z,4.40
2019-04-11T10:54:36.870Z,5.30
2019-04-11T10:57:14.257Z,5.30
2019-04-11T10:59:45.389Z,4.93
2019-04-11T11:02:23.009Z,5.73
2019-04-11T11:04:54.205Z,5.53
2019-04-11T11:07:24.641Z,5.97
2019-04-11T11:10:04.855Z,5.50
2019-04-11T11:12:52.360Z,5.77
2019-04-11T11:15:23.422Z,5.97
2019-04-11T11:18:41.104Z,6.00
2019-04-11T11:20:55.025Z,5.53
2019-04-11T11:23:31.171Z,5.37
2019-04-11T11:26:09.009Z,5.80
2019-04-11T11:28:41.053Z,6.00
2019-04-11T11:31:12.453Z,6.10
2019-04-11T11:33:44.819Z,5.83
2019-04-11T11:36:25.699Z,5.90
2019-04-11T11:39:02.813Z,5.97
2019-04-11T11:41:50.371Z,6.10
2019-04-11T11:44:23.018Z,5.70
2019-04-11T11:47:06.834Z,6.57
2019-04-11T11:49:48.732Z,5.90
2019-04-11T11:52:26.938Z,5.70
2019-04-11T11:54:57.438Z,5.93
2019-04-11T11:57:28.862Z,6.23
2019-04-11T12:00:03.217Z,6.13
2019-04-11T12:02:36.988Z,6.23
2019-04-11T12:05:12.960Z,5.97
2019-04-11T12:07:41.655Z,5.97
2019-04-11T12:10:17.381Z,6.47
2019-04-11T12:12:51.915Z,6.13
2019-04-11T12:15:39.820Z,5.60
2019-04-11T12:18:18.587Z,5.30
2019-04-11T12:20:49.700Z,6.23
2019-04-11T12:23:44.650Z,6.40
2019-04-11T12:26:05.674Z,6.43
2019-04-11T12:28:52.262Z,6.83
2019-04-11T12:31:32.104Z,7.47
2019-04-11T12:34:19.168Z,6.63
2019-04-11T12:36:50.921Z,6.93
2019-04-11T12:39:24.556Z,7.07
2019-04-11T12:45:00.204Z,6.20
2019-04-11T12:47:31.643Z,6.80
2019-04-11T12:50:04.184Z,6.77
2019-04-11T12:52:44.074Z,6.80
2019-04-11T12:58:20.342Z,6.50
2019-04-11T13:00:51.440Z,7.00
2019-04-11T13:03:25.484Z,6.60
2019-04-11T13:06:13.136Z,6.27
2019-04-11T13:09:02.063Z,6.63
2019-04-11T13:11:33.211Z,6.23
2019-04-11T13:14:04.312Z,6.20
2019-04-11T13:16:33.711Z,6.87
2019-04-11T13:19:04.760Z,6.80
2019-04-11T13:21:42.332Z,6.10
2019-04-11T13:24:13.354Z,6.30
2019-04-11T13:27:00.816Z,6.00
2019-04-11T13:29:43.775Z,5.90
2019-04-11T13:32:33.283Z,5.90
2019-04-11T13:35:07.058Z,6.03
2019-04-11T13:37:56.527Z,5.50
2019-04-11T13:40:42.935Z,5.80
2019-04-11T13:43:32.401Z,5.73
2019-04-11T13:46:09.043Z,5.43
2019-04-11T13:48:56.563Z,5.37
2019-04-11T13:51:30.401Z,4.77
2019-04-11T13:54:18.348Z,5.23
2019-04-11T13:56:58.528Z,4.67
2019-04-11T14:02:15.632Z,4.53
2019-04-11T14:04:49.890Z,4.40
2019-04-11T14:07:27.000Z,4.47
2019-04-11T14:09:59.128Z,4.03
2019-04-11T14:12:29.204Z,4.17
2019-04-11T14:15:00.511Z,4.67
2019-04-11T14:17:46.880Z,4.70
2019-04-11T14:20:28.620Z,4.60
2019-04-11T14:22:51.018Z,4.50
2019-04-11T14:25:22.118Z,4.90
2019-04-11T14:27:53.199Z,5.17
2019-04-11T14:30:42.886Z,4.90
2019-04-11T14:33:12.407Z,4.97
2019-04-11T14:35:59.968Z,4.87
2019-04-11T14:38:32.068Z,5.90
2019-04-11T14:41:09.854Z,5.10
2019-04-11T14:43:41.044Z,5.03
2019-04-11T14:46:28.566Z,5.10
2019-04-11T14:48:58.534Z,5.50
2019-04-11T14:51:43.917Z,5.20
2019-04-11T14:54:17.071Z,6.07
2019-04-11T14:57:02.141Z,5.60
2019-04-11T14:59:42.576Z,5.70
2019-04-11T15:02:13.554Z,5.50
2019-04-11T15:04:47.676Z,5.77
2019-04-11T15:07:18.971Z,5.80
2019-04-11T15:10:09.824Z,6.13
2019-04-11T15:12:40.289Z,6.87
2019-04-11T15:15:11.596Z,6.30
2019-04-11T15:17:42.090Z,5.77
2019-04-11T15:20:15.269Z,5.20
2019-04-11T15:22:49.253Z,6.10
2019-04-11T15:28:24.158Z,6.40
2019-04-11T15:30:58.403Z,6.80
2019-04-11T15:33:32.435Z,6.77
2019-04-11T15:36:03.570Z,6.90
2019-04-11T15:41:16.326Z,7.33
2019-04-11T15:43:49.988Z,7.07
2019-04-11T15:46:21.030Z,7.30
2019-04-11T15:48:53.929Z,7.27
2019-04-11T15:51:28.486Z,6.87
2019-04-11T15:54:14.841Z,7.50
2019-04-11T15:56:58.100Z,7.10
2019-04-11T15:59:38.492Z,6.53
2019-04-11T16:02:25.511Z,7.33
2019-04-11T16:05:01.669Z,7.20
2019-04-11T16:07:37.404Z,7.60
2019-04-11T16:10:11.675Z,7.03
2019-04-11T16:12:50.703Z,7.07
2019-04-11T16:15:23.229Z,7.27
2019-04-11T16:18:09.863Z,6.90
2019-04-11T16:20:39.390Z,7.00
2019-04-11T16:23:28.878Z,7.23
2019-04-11T16:25:58.294Z,6.27
2019-04-11T16:28:45.596Z,7.57
2019-04-11T16:31:15.217Z,7.40
2019-04-11T16:34:02.493Z,6.93
2019-04-11T16:36:33.682Z,6.47
2019-04-11T16:39:07.814Z,7.07
2019-04-11T16:41:55.586Z,7.00
2019-04-11T16:44:33.283Z,6.50
2019-04-11T16:47:21.110Z,6.27
2019-04-11T16:49:52.349Z,6.23
2019-04-11T16:52:21.784Z,7.10
2019-04-11T16:54:51.180Z,7.00
2019-04-11T16:57:20.574Z,7.10
2019-04-11T16:59:50.343Z,7.70
2019-04-11T17:02:21.842Z,7.10
2019-04-11T17:04:51.116Z,7.87
2019-04-11T17:07:34.558Z,7.00
2019-04-11T17:10:07.998Z,7.90
2019-04-11T17:12:37.503Z,6.97
2019-04-11T17:15:08.250Z,7.20
2019-04-11T17:17:37.652Z,6.63
2019-04-11T17:20:07.713Z,6.40
2019-04-11T17:22:37.227Z,6.80
2019-04-11T17:25:25.913Z,7.93
2019-04-11T17:27:56.320Z,7.30
2019-04-11T17:30:25.664Z,7.27
2019-04-11T17:32:55.697Z,7.47
2019-04-11T17:35:25.595Z,6.80
2019-04-11T17:37:54.988Z,7.37
2019-04-11T17:40:24.404Z,7.47
2019-04-11T17:42:53.800Z,7.40
2019-04-11T17:45:23.213Z,7.77
2019-04-11T17:47:54.753Z,7.23
2019-04-11T17:50:23.795Z,6.80
2019-04-11T17:52:54.776Z,6.90
2019-04-11T17:55:24.565Z,7.20
2019-04-11T17:57:54.904Z,7.50
2019-04-11T18:00:30.698Z,7.03
2019-04-11T18:03:00.150Z,7.00
2019-04-11T18:05:29.595Z,7.60
2019-04-11T18:07:59.459Z,7.67
2019-04-11T18:10:28.934Z,8.53
2019-04-11T18:13:00.443Z,7.60
2019-04-11T18:15:31.154Z,7.10
2019-04-11T18:18:03.207Z,8.57
2019-04-11T18:20:36.798Z,7.50
2019-04-11T18:23:05.221Z,7.70
2019-04-11T18:25:34.743Z,8.67
2019-04-11T18:28:04.299Z,6.90
2019-04-11T18:30:33.691Z,8.13
2019-04-11T18:33:03.274Z,8.47
2019-04-11T18:35:34.419Z,7.67
2019-04-11T18:38:05.231Z,8.10
2019-04-11T18:40:34.837Z,8.23
2019-04-11T18:43:04.412Z,7.53
2019-04-11T18:45:34.012Z,7.97
2019-04-11T18:48:03.518Z,7.53
2019-04-11T18:50:33.135Z,7.60
2019-04-11T18:53:03.204Z,7.20
2019-04-11T18:55:32.738Z,6.30
2019-04-11T18:58:04.554Z,6.20
2019-04-11T19:00:35.845Z,6.13
2019-04-11T19:03:05.222Z,6.27
2019-04-11T19:05:47.464Z,6.00
2019-04-11T19:08:24.003Z,5.87
2019-04-11T19:10:55.277Z,6.40
2019-04-11T19:13:46.744Z,6.37
2019-04-11T19:16:16.789Z,5.80
2019-04-11T19:18:47.642Z,5.97
2019-04-11T19:21:20.181Z,5.90
2019-04-11T19:23:50.059Z,6.37
2019-04-11T19:26:19.599Z,6.63
2019-04-11T19:28:49.331Z,6.77
2019-04-11T19:31:19.483Z,8.27
2019-04-11T19:33:48.990Z,8.90
2019-04-11T19:36:31.733Z,8.57
2019-04-11T19:39:02.025Z,9.27
2019-04-11T19:41:31.383Z,9.83
2019-04-11T19:44:00.856Z,9.07
2019-04-11T19:46:30.322Z,9.27
2019-04-11T19:48:59.871Z,8.77
2019-04-11T19:51:29.596Z,8.77
2019-04-11T19:54:03.011Z,9.50
2019-04-11T19:56:40.771Z,9.03
2019-04-11T19:59:10.413Z,8.50
2019-04-11T20:01:39.867Z,9.03
2019-04-11T20:04:10.402Z,8.63
2019-04-11T20:06:39.827Z,8.87
2019-04-11T20:09:09.445Z,9.00
2019-04-11T20:11:38.804Z,8.50
2019-04-11T20:14:09.695Z,8.37
2019-04-11T20:16:42.793Z,8.13
2019-04-11T20:19:10.290Z,8.70
2019-04-11T20:21:41.263Z,8.73
2019-04-11T20:24:14.056Z,8.60
2019-04-11T20:26:41.914Z,8.77
2019-04-11T20:29:11.756Z,8.53
2019-04-11T20:31:41.171Z,8.30
2019-04-11T20:34:10.828Z,7.83
2019-04-11T20:36:41.308Z,7.90
2019-04-11T20:39:15.038Z,8.07
2019-04-11T20:41:42.475Z,8.20
2019-04-11T20:44:11.935Z,8.00
2019-04-11T20:46:41.352Z,7.87
2019-04-11T20:49:11.031Z,7.83
2019-04-11T20:51:40.435Z,8.40
2019-04-11T20:54:09.989Z,7.53
2019-04-11T20:56:40.465Z,7.63
2019-04-11T20:59:10.990Z,8.03
2019-04-11T21:01:40.550Z,8.07
2019-04-11T21:04:09.936Z,7.80
2019-04-11T21:06:39.360Z,7.23
2019-04-11T21:09:10.994Z,7.87
2019-04-11T21:11:40.575Z,7.20
2019-04-11T21:14:10.128Z,6.63
2019-04-11T21:16:39.482Z,6.87
2019-04-11T21:19:10.662Z,5.97
2019-04-11T21:21:40.154Z,7.00
2019-04-11T21:24:09.587Z,6.40
2019-04-11T21:26:39.176Z,6.10
2019-04-11T21:29:08.635Z,6.30
2019-04-11T21:31:37.984Z,6.83
2019-04-11T21:34:07.381Z,6.20
2019-04-11T21:36:36.887Z,6.50
2019-04-11T21:39:07.794Z,6.33
2019-04-11T21:41:37.174Z,6.83
2019-04-11T21:44:07.037Z,6.47
2019-04-11T21:46:38.453Z,6.83
2019-04-11T21:49:07.670Z,6.10
2019-04-11T21:51:41.549Z,5.80
2019-04-11T21:54:08.274Z,6.13
2019-04-11T21:56:37.641Z,5.90
2019-04-11T21:59:08.266Z,6.17
2019-04-11T22:01:39.983Z,6.23
2019-04-11T22:04:09.920Z,6.33
2019-04-11T22:06:39.449Z,5.13
2019-04-11T22:09:09.120Z,6.03
2019-04-11T22:11:39.017Z,5.60
2019-04-11T22:14:10.995Z,5.70
2019-04-11T22:16:44.051Z,5.20
2019-04-11T22:19:13.973Z,5.77
2019-04-11T22:21:45.087Z,5.90
2019-04-11T22:24:13.001Z,5.53
2019-04-11T22:26:42.387Z,5.87
2019-04-11T22:29:11.734Z,6.13
2019-04-11T22:31:41.124Z,5.73
2019-04-11T22:34:18.128Z,5.50
2019-04-11T22:36:47.603Z,6.00
2019-04-11T22:39:17.054Z,5.93
2019-04-11T22:41:46.655Z,6.73
2019-04-11T22:44:16.015Z,5.90
2019-04-11T22:46:45.577Z,5.50
2019-04-11T22:49:15.066Z,5.57
2019-04-11T22:51:44.456Z,5.73
2019-04-11T22:54:13.895Z,6.10
2019-04-11T22:56:43.275Z,5.83
2019-04-11T22:59:14.031Z,6.13
2019-04-11T23:01:59.914Z,5.80
2019-04-11T23:04:29.412Z,6.03
2019-04-11T23:06:58.805Z,6.70
2019-04-11T23:09:28.381Z,5.90
2019-04-11T23:11:57.875Z,6.33
2019-04-11T23:14:27.334Z,6.20
2019-04-11T23:16:56.708Z,6.10
2019-04-11T23:19:26.282Z,6.27
2019-04-11T23:21:56.052Z,6.37
2019-04-11T23:24:25.666Z,6.40
2019-04-11T23:26:55.062Z,5.93
2019-04-11T23:29:24.547Z,6.80
2019-04-11T23:31:54.018Z,6.27
2019-04-11T23:34:23.574Z,6.47
2019-04-11T23:36:53.136Z,6.63
2019-04-11T23:39:23.425Z,6.73
2019-04-11T23:41:53.002Z,7.03
2019-04-11T23:44:22.402Z,6.73
2019-04-11T23:46:52.632Z,6.30
2019-04-11T23:49:24.843Z,6.60
2019-04-11T23:51:55.725Z,7.30
2019-04-11T23:54:24.286Z,6.63
2019-04-11T23:56:53.644Z,5.93
2019-04-11T23:59:23.027Z,6.40
